Archival Weather

Republic

Farmingdale, New York (KFRG)

Report from: Wednesday, February 21, 2024 10:53 PM EST
Current time: Friday, June 14, 2024 7:53 AM EDT

Current weather – Weather history – Daily summaries
Weather forecast

Temperature1.7°C (35.1°F)
Wind chill-1.1°C (30.1°F)
Dew point-3.9°C (25.0°F)
Winds 5 kts (2.6 m/s, 5.8 mph) East-Southeast (110°)
Visibility10 mi. (16.1 km)
Clouds Ceiling: Overcast 2,600 ft. (792 m)
Altimeter30.28 in.Hg (1025 mB)
Relative humidity66 %
Density altitude-1,956 ft. (-596 m)
Sea-level pressure102.5 kPa (1025 mB, 30.28 in.Hg)
Remarks Fully automated report
Automated weather observing station without precipitation discriminator
Freezing rain sensor not operating
Flight conditions Marginal Visual Meteorological Conditions
Raw dataKFRG 220353Z AUTO 11005KT 10SM OVC026 02/M04 A3028 RMK AO1 SLP253 T00171039 FZRANO
An error has occurred. This application may no longer respond until reloaded. Reload 🗙